Time;durP1;ratioP1;P1;durP2;ratioP2;P2;SDS_P1;SDS_P2;PMS_P1;PMS_P2;Temp;Humidity;BMP_temperature;BMP_pressure;BME280_temperature;BME280_humidity;BME280_pressure;Samples;Min_cycle;Max_cycle;Signal;HPM_P1;HPM_P2
2021/08/18 00:02:08;;;;;;;14.50;9.18;;;;;;;;;;3567002;40;20777;-65
2021/08/18 00:04:34;;;;;;;13.95;8.57;;;15.30;99.90;;;;;;3565993;40;20340;-66
2021/08/18 00:06:59;;;;;;;15.27;9.77;;;15.20;99.90;;;;;;3566726;40;20825;-65
2021/08/18 00:09:25;;;;;;;13.25;9.13;;;;;;;;;;3565982;40;20024;-66
2021/08/18 00:11:51;;;;;;;15.23;9.93;;;;;;;;;;3567515;40;20090;-66
2021/08/18 00:14:17;;;;;;;17.33;9.93;;;15.30;99.90;;;;;;3566664;40;20035;-65
2021/08/18 00:16:42;;;;;;;16.48;9.63;;;14.70;99.90;;;;;;3566136;40;20052;-66
2021/08/18 00:19:08;;;;;;;14.98;9.57;;;;;;;;;;3565649;40;20041;-66
2021/08/18 00:21:34;;;;;;;15.77;10.38;;;;;;;;;;3566943;40;20033;-65
2021/08/18 00:24:00;;;;;;;20.67;10.73;;;15.10;99.90;;;;;;3566900;40;20767;-66
2021/08/18 00:26:26;;;;;;;21.23;10.52;;;;;;;;;;3565230;40;20049;-65
2021/08/18 00:28:53;;;;;;;16.38;10.40;;;;;;;;;;3566997;40;20625;-66
2021/08/18 00:31:19;;;;;;;15.75;9.48;;;;;;;;;;3566521;40;20036;-66
2021/08/18 00:33:45;;;;;;;15.82;9.80;;;;;;;;;;3565718;40;20077;-66
2021/08/18 00:36:11;;;;;;;15.70;9.65;;;;;;;;;;3565876;40;20187;-66
2021/08/18 00:38:37;;;;;;;14.73;9.52;;;;;;;;;;3565284;40;20041;-66
2021/08/18 00:41:03;;;;;;;14.65;9.65;;;;;;;;;;3565918;40;20185;-66
2021/08/18 00:43:29;;;;;;;13.65;8.48;;;;;;;;;;3566640;40;20484;-66
2021/08/18 00:45:54;;;;;;;17.23;9.80;;;15.20;99.90;;;;;;3567897;40;20095;-66
2021/08/18 00:48:20;;;;;;;21.63;12.40;;;;;;;;;;3563316;40;20038;-66
2021/08/18 00:50:46;;;;;;;16.08;10.05;;;;;;;;;;3567404;40;20021;-66
2021/08/18 00:53:13;;;;;;;15.32;9.63;;;15.00;99.90;;;;;;3564144;40;20088;-66
2021/08/18 00:55:39;;;;;;;13.68;9.07;;;;;;;;;;3563253;40;20677;-66
2021/08/18 00:58:04;;;;;;;12.82;9.25;;;15.30;99.90;;;;;;3564469;40;20045;-66
2021/08/18 01:00:30;;;;;;;14.70;9.05;;;;;;;;;;3564734;40;20046;-66
2021/08/18 01:02:57;;;;;;;12.98;8.80;;;;;;;;;;3565171;40;20037;-66
2021/08/18 01:05:23;;;;;;;17.20;8.75;;;14.90;99.90;;;;;;3566344;40;20017;-66
2021/08/18 01:07:48;;;;;;;13.90;8.90;;;15.00;99.90;;;;;;3566626;40;20159;-66
2021/08/18 01:10:14;;;;;;;12.48;8.60;;;15.10;99.90;;;;;;3566017;40;20033;-66
2021/08/18 01:12:39;;;;;;;12.85;8.85;;;;;;;;;;3565107;40;20081;-66
2021/08/18 01:15:05;;;;;;;11.80;8.07;;;;;;;;;;3564894;40;20037;-66
2021/08/18 01:17:31;;;;;;;14.65;9.18;;;15.30;99.90;;;;;;3565877;40;20052;-66
2021/08/18 01:19:56;;;;;;;13.80;9.05;;;15.20;99.90;;;;;;3565881;40;20025;-65
2021/08/18 01:22:22;;;;;;;11.05;8.38;;;14.90;99.90;;;;;;3564316;40;20029;-65
2021/08/18 01:24:48;;;;;;;15.40;8.45;;;;;;;;;;3565695;40;20123;-65
2021/08/18 01:27:13;;;;;;;14.13;8.65;;;15.30;99.90;;;;;;3565152;40;20036;-66
2021/08/18 01:29:39;;;;;;;14.13;8.70;;;14.50;99.90;;;;;;3564818;40;20248;-66
2021/08/18 01:32:04;;;;;;;13.23;8.70;;;14.40;99.90;;;;;;3564458;40;20029;-65
2021/08/18 01:34:30;;;;;;;13.95;8.07;;;;;;;;;;3564939;40;20391;-65
2021/08/18 01:36:56;;;;;;;16.45;8.93;;;;;;;;;;3565502;40;20038;-65
2021/08/18 01:39:22;;;;;;;14.57;8.88;;;;;;;;;;3564970;40;20615;-65
2021/08/18 01:41:48;;;;;;;16.08;9.07;;;;;;;;;;3564737;40;20041;-65
2021/08/18 01:44:14;;;;;;;14.05;8.50;;;;;;;;;;3565377;40;20820;-65
2021/08/18 01:46:40;;;;;;;14.82;8.88;;;;;;;;;;3565501;40;20037;-66
2021/08/18 01:49:06;;;;;;;14.13;9.07;;;14.60;99.90;;;;;;3564431;40;20033;-65
2021/08/18 01:51:32;;;;;;;13.57;8.65;;;;;;;;;;3566538;40;20754;-65
2021/08/18 01:53:58;;;;;;;15.73;8.13;;;;;;;;;;3566531;40;20025;-65
2021/08/18 01:56:23;;;;;;;14.30;8.75;;;15.20;99.90;;;;;;3564720;40;20130;-65
2021/08/18 01:58:49;;;;;;;12.55;9.00;;;14.80;99.90;;;;;;3566002;40;20040;-65
2021/08/18 02:01:15;;;;;;;14.73;8.25;;;14.90;99.90;;;;;;3564813;40;20542;-65
2021/08/18 02:03:40;;;;;;;12.68;8.18;;;14.80;99.90;;;;;;3565151;40;20033;-66
2021/08/18 02:06:06;;;;;;;11.85;7.60;;;14.70;99.90;;;;;;3566326;40;20370;-65
2021/08/18 02:08:31;;;;;;;16.40;8.73;;;15.10;99.90;;;;;;3565316;40;20043;-65
2021/08/18 02:10:56;;;;;;;19.08;8.77;;;14.70;99.90;;;;;;3565990;40;20033;-66
2021/08/18 02:13:22;;;;;;;15.73;8.20;;;14.50;99.90;;;;;;3565180;40;20366;-65
2021/08/18 02:15:47;;;;;;;23.08;8.60;;;14.10;99.90;;;;;;3565288;40;20044;-65
2021/08/18 02:18:16;;;;;;;13.95;8.90;;;14.50;99.90;;;;;;3565451;40;20057;-66
2021/08/18 02:20:41;;;;;;;13.93;8.30;;;14.70;99.90;;;;;;3566540;40;20044;-65
2021/08/18 02:23:07;;;;;;;13.63;8.15;;;14.60;99.90;;;;;;3565918;40;20029;-66
2021/08/18 02:25:32;;;;;;;16.77;7.75;;;14.70;99.90;;;;;;3564877;40;20138;-65
2021/08/18 02:27:58;;;;;;;11.65;7.63;;;14.60;99.90;;;;;;3565436;40;20042;-65
2021/08/18 02:30:23;;;;;;;14.88;7.00;;;14.00;99.90;;;;;;3566073;40;20508;-66
2021/08/18 02:32:49;;;;;;;15.15;7.95;;;;;;;;;;3566280;40;20041;-65
2021/08/18 02:35:15;;;;;;;11.38;8.00;;;14.70;99.90;;;;;;3564738;40;20831;-66
2021/08/18 02:37:40;;;;;;;14.50;8.30;;;14.70;99.90;;;;;;3565871;40;20715;-66
2021/08/18 02:40:06;;;;;;;14.35;7.88;;;14.60;99.90;;;;;;3567124;40;20421;-66
2021/08/18 02:42:31;;;;;;;15.70;7.75;;;15.00;99.90;;;;;;3568309;40;20040;-66
2021/08/18 02:44:56;;;;;;;12.15;7.70;;;14.60;99.90;;;;;;3566564;40;20081;-66
2021/08/18 02:47:22;;;;;;;14.38;8.05;;;14.60;99.90;;;;;;3567853;40;20056;-66
2021/08/18 02:49:47;;;;;;;13.32;7.72;;;14.60;99.90;;;;;;3567581;40;20069;-66
2021/08/18 02:52:13;;;;;;;13.18;8.10;;;14.90;99.90;;;;;;3566130;40;20033;-66
2021/08/18 02:54:38;;;;;;;14.25;8.30;;;14.50;99.90;;;;;;3568454;40;20703;-66
2021/08/18 02:57:04;;;;;;;12.68;7.55;;;14.40;99.90;;;;;;3566113;40;20084;-66
2021/08/18 02:59:29;;;;;;;13.25;7.32;;;14.60;99.90;;;;;;3568677;40;20073;-66
2021/08/18 03:01:55;;;;;;;13.20;7.70;;;14.50;99.90;;;;;;3568477;40;20065;-66
2021/08/18 03:04:20;;;;;;;15.65;8.32;;;;;;;;;;3567115;40;20053;-66
2021/08/18 03:06:46;;;;;;;13.77;8.27;;;;;;;;;;3565826;40;20541;-65
2021/08/18 03:09:12;;;;;;;12.90;7.63;;;;;;;;;;3565212;40;20414;-65
2021/08/18 03:11:38;;;;;;;14.05;8.55;;;;;;;;;;3566116;40;20426;-66
2021/08/18 03:14:04;;;;;;;15.27;8.02;;;;;;;;;;3565667;40;20858;-65
2021/08/18 03:16:30;;;;;;;14.20;8.18;;;;;;;;;;3565241;40;20040;-66
2021/08/18 03:18:56;;;;;;;13.27;7.45;;;;;;;;;;3566954;40;20665;-66
2021/08/18 03:21:22;;;;;;;14.00;7.90;;;;;;;;;;3565881;40;20636;-66
2021/08/18 03:23:48;;;;;;;14.95;8.18;;;;;;;;;;3567036;40;20111;-65
2021/08/18 03:26:14;;;;;;;10.32;7.60;;;;;;;;;;3565860;40;20045;-65
2021/08/18 03:28:40;;;;;;;12.82;7.50;;;;;;;;;;3568226;40;20037;-66
2021/08/18 03:31:06;;;;;;;12.63;7.80;;;;;;;;;;3568040;40;20025;-65
2021/08/18 03:33:32;;;;;;;12.05;7.95;;;;;;;;;;3566241;40;20067;-66
2021/08/18 03:35:58;;;;;;;12.43;8.18;;;;;;;;;;3567116;40;20033;-66
2021/08/18 03:38:23;;;;;;;14.73;8.45;;;14.80;99.90;;;;;;3568768;40;20033;-67
2021/08/18 03:40:52;;;;;;;13.02;7.85;;;;;;;;;;3566183;40;20018;-67
2021/08/18 03:43:18;;;;;;;10.45;7.22;;;;;;;;;;3563945;40;20029;-67
2021/08/18 03:45:44;;;;;;;14.98;8.35;;;;;;;;;;3565679;40;20069;-67
2021/08/18 03:48:10;;;;;;;13.20;7.68;;;;;;;;;;3564892;40;20045;-66
2021/08/18 03:50:36;;;;;;;15.13;8.73;;;;;;;;;;3565730;40;20059;-67
2021/08/18 03:53:02;;;;;;;14.70;8.30;;;;;;;;;;3566976;40;20065;-67
2021/08/18 03:55:28;;;;;;;13.07;7.78;;;;;;;;;;3563096;40;20400;-67
2021/08/18 03:57:54;;;;;;;13.63;7.53;;;;;;;;;;3565017;40;20063;-67
2021/08/18 04:00:20;;;;;;;13.88;7.82;;;;;;;;;;3564223;40;20048;-66
2021/08/18 04:05:56;;;;;;;10.98;7.40;;;;;;;;;;3564612;40;20061;-67
2021/08/18 04:08:22;;;;;;;11.90;7.97;;;;;;;;;;3565915;40;20485;-67
2021/08/18 04:10:48;;;;;;;15.15;7.63;;;;;;;;;;3567887;40;20073;-67
2021/08/18 04:13:14;;;;;;;9.82;6.75;;;;;;;;;;3566842;40;20026;-67
2021/08/18 04:15:40;;;;;;;14.77;8.00;;;;;;;;;;3566963;40;20122;-67
2021/08/18 04:18:06;;;;;;;12.25;7.60;;;;;;;;;;3565658;40;20045;-67
2021/08/18 04:20:32;;;;;;;10.63;6.57;;;;;;;;;;3569518;40;20386;-67
2021/08/18 04:22:58;;;;;;;13.45;7.05;;;;;;;;;;3564656;40;20033;-67
2021/08/18 04:25:24;;;;;;;12.65;7.28;;;;;;;;;;3566120;40;20069;-67
2021/08/18 04:27:50;;;;;;;13.80;7.30;;;;;;;;;;3564569;40;20040;-67
2021/08/18 04:30:16;;;;;;;17.40;8.05;;;;;;;;;;3567361;40;20413;-66
2021/08/18 04:32:42;;;;;;;13.95;7.82;;;;;;;;;;3567989;40;20268;-66
2021/08/18 04:35:08;;;;;;;13.10;7.45;;;;;;;;;;3567605;40;20041;-67
2021/08/18 04:37:35;;;;;;;13.15;7.25;;;;;;;;;;3566195;40;20684;-67
2021/08/18 04:40:01;;;;;;;11.93;7.53;;;;;;;;;;3570291;40;20029;-68
2021/08/18 04:42:27;;;;;;;14.73;7.00;;;;;;;;;;3566111;40;20053;-61
2021/08/18 04:44:53;;;;;;;12.70;6.82;;;;;;;;;;3566635;40;20142;-61
2021/08/18 04:47:19;;;;;;;11.35;6.85;;;;;;;;;;3569139;40;20071;-61
2021/08/18 04:49:45;;;;;;;13.35;7.38;;;;;;;;;;3565397;40;20419;-61
2021/08/18 04:52:11;;;;;;;11.35;6.85;;;;;;;;;;3565414;40;20032;-61
2021/08/18 04:54:37;;;;;;;11.40;7.15;;;;;;;;;;3567079;40;20045;-61
2021/08/18 04:57:03;;;;;;;10.65;6.07;;;;;;;;;;3570920;40;20071;-61
2021/08/18 04:59:29;;;;;;;11.73;6.70;;;;;;;;;;3564007;40;20021;-61
2021/08/18 05:01:55;;;;;;;12.68;6.15;;;;;;;;;;3567085;40;20026;-59
2021/08/18 05:04:21;;;;;;;9.75;6.80;;;;;;;;;;3566611;40;20048;-59
2021/08/18 05:06:47;;;;;;;9.40;6.18;;;;;;;;;;3566841;40;20520;-61
2021/08/18 05:09:13;;;;;;;10.75;6.15;;;;;;;;;;3564898;40;20081;-61
2021/08/18 05:11:39;;;;;;;10.27;5.68;;;15.20;99.90;;;;;;3567255;40;20044;-59
2021/08/18 05:14:05;;;;;;;11.40;6.97;;;;;;;;;;3565018;40;20061;-59
2021/08/18 05:16:31;;;;;;;11.30;5.75;;;;;;;;;;3568225;40;20041;-61
2021/08/18 05:18:57;;;;;;;11.10;6.10;;;;;;;;;;3564419;40;20100;-61
2021/08/18 05:21:23;;;;;;;11.82;6.32;;;;;;;;;;3565314;40;20029;-59
2021/08/18 05:23:48;;;;;;;10.60;5.90;;;;;;;;;;3563427;40;20037;-59
2021/08/18 05:26:14;;;;;;;8.40;5.13;;;;;;;;;;3566870;40;20463;-64
2021/08/18 05:28:40;;;;;;;13.20;6.97;;;;;;;;;;3565533;40;20032;-59
2021/08/18 05:31:06;;;;;;;16.33;9.02;;;;;;;;;;3562739;40;20032;-61
2021/08/18 05:33:33;;;;;;;12.20;5.68;;;;;;;;;;3565070;40;20040;-59
2021/08/18 05:36:00;;;;;;;14.05;6.65;;;;;;;;;;3559889;40;20055;-59
2021/08/18 05:38:26;;;;;;;11.90;6.40;;;;;;;;;;3565674;40;20037;-61
2021/08/18 05:40:52;;;;;;;8.70;5.55;;;;;;;;;;3563615;40;20334;-59
2021/08/18 05:43:18;;;;;;;9.55;4.97;;;;;;;;;;3568812;40;20979;-60
2021/08/18 05:45:44;;;;;;;25.40;11.63;;;;;;;;;;3563915;40;20091;-63
2021/08/18 05:48:10;;;;;;;12.77;5.70;;;;;;;;;;3565520;40;20021;-61
2021/08/18 05:50:36;;;;;;;8.13;4.97;;;;;;;;;;3566035;40;20036;-59
2021/08/18 05:53:02;;;;;;;8.07;5.03;;;;;;;;;;3564913;40;20057;-59
2021/08/18 05:55:28;;;;;;;16.73;6.95;;;;;;;;;;3566992;40;20715;-60
2021/08/18 05:57:54;;;;;;;10.18;5.43;;;;;;;;;;3566460;40;20032;-63
2021/08/18 06:00:20;;;;;;;10.43;5.35;;;;;;;;;;3566817;40;20025;-61
2021/08/18 06:02:46;;;;;;;12.02;5.53;;;;;;;;;;3566119;40;20032;-62
2021/08/18 06:05:12;;;;;;;12.32;6.40;;;;;;;;;;3566212;40;20037;-61
2021/08/18 06:07:38;;;;;;;11.10;5.90;;;;;;;;;;3566569;40;20449;-61
2021/08/18 06:10:04;;;;;;;9.57;5.57;;;;;;;;;;3564207;40;20167;-61
2021/08/18 06:12:30;;;;;;;10.48;5.63;;;;;;;;;;3565240;40;20052;-61
2021/08/18 06:14:56;;;;;;;11.25;5.25;;;;;;;;;;3565344;40;20100;-61
2021/08/18 06:17:22;;;;;;;13.32;4.85;;;;;;;;;;3561090;40;20039;-61
2021/08/18 06:19:48;;;;;;;14.57;6.95;;;;;;;;;;3565235;40;20065;-61
2021/08/18 06:22:14;;;;;;;9.48;4.95;;;;;;;;;;3567876;40;20021;-62
2021/08/18 06:24:43;;;;;;;9.63;4.60;;;;;;;;;;3567991;40;20041;-64
2021/08/18 06:27:09;;;;;;;11.38;4.70;;;;;;;;;;3564661;40;20453;-61
2021/08/18 06:29:35;;;;;;;13.30;4.75;;;;;;;;;;3568973;40;20037;-64
2021/08/18 06:32:01;;;;;;;7.13;4.30;;;14.70;99.90;;;;;;3567040;40;20041;-61
2021/08/18 06:34:27;;;;;;;7.93;4.22;;;;;;;;;;3567523;40;20457;-61
2021/08/18 06:36:53;;;;;;;9.63;4.25;;;;;;;;;;3566173;40;20565;-61
2021/08/18 06:39:18;;;;;;;7.25;4.28;;;16.40;99.90;;;;;;3568136;40;20029;-62
2021/08/18 06:41:44;;;;;;;7.70;4.03;;;;;;;;;;3567823;40;20048;-61
2021/08/18 06:44:10;;;;;;;7.18;4.03;;;;;;;;;;3566970;40;20041;-61
2021/08/18 06:46:36;;;;;;;8.68;3.88;;;;;;;;;;3565821;40;20029;-62
2021/08/18 06:49:02;;;;;;;9.65;4.18;;;;;;;;;;3567347;40;20037;-61
2021/08/18 06:51:28;;;;;;;13.40;7.03;;;;;;;;;;3566206;40;20127;-69
2021/08/18 06:53:54;;;;;;;9.02;3.53;;;;;;;;;;3566843;40;20773;-69
2021/08/18 06:56:20;;;;;;;8.25;4.68;;;;;;;;;;3568820;40;20018;-69
2021/08/18 06:58:46;;;;;;;7.65;4.00;;;;;;;;;;3566640;40;20028;-69
2021/08/18 07:01:12;;;;;;;7.53;4.60;;;;;;;;;;3564487;40;20041;-69
2021/08/18 07:03:38;;;;;;;11.90;5.65;;;;;;;;;;3567610;40;20326;-69
2021/08/18 07:06:04;;;;;;;9.45;4.22;;;;;;;;;;3564205;40;20037;-69
2021/08/18 07:08:30;;;;;;;9.85;3.88;;;;;;;;;;3563410;40;20045;-70
2021/08/18 07:10:56;;;;;;;6.68;3.35;;;;;;;;;;3563059;40;20017;-66
2021/08/18 07:13:22;;;;;;;8.95;4.30;;;;;;;;;;3560859;40;20059;-66
2021/08/18 07:15:48;;;;;;;6.68;3.60;;;;;;;;;;3566933;40;20043;-66
2021/08/18 07:18:14;;;;;;;7.80;3.00;;;;;;;;;;3566425;40;20637;-67
2021/08/18 07:20:40;;;;;;;4.28;2.75;;;16.60;99.90;;;;;;3564263;40;20449;-67
2021/08/18 07:23:06;;;;;;;6.93;2.80;;;;;;;;;;3566748;40;20476;-67
2021/08/18 07:25:32;;;;;;;3.72;2.53;;;;;;;;;;3566114;40;20037;-67
2021/08/18 07:27:58;;;;;;;4.40;2.63;;;;;;;;;;3566776;40;20056;-67
2021/08/18 07:30:24;;;;;;;7.05;2.95;;;;;;;;;;3567043;40;20049;-67
2021/08/18 07:32:50;;;;;;;5.57;2.67;;;;;;;;;;3567774;40;20021;-67
2021/08/18 07:35:16;;;;;;;5.68;2.83;;;;;;;;;;3566253;40;20055;-67
2021/08/18 07:37:42;;;;;;;5.43;2.80;;;18.40;99.90;;;;;;3568819;40;20663;-69
2021/08/18 07:40:08;;;;;;;4.40;2.63;;;;;;;;;;3568846;40;20418;-68
2021/08/18 07:42:34;;;;;;;4.63;2.50;;;;;;;;;;3566580;40;20318;-68
2021/08/18 07:45:00;;;;;;;10.02;4.65;;;;;;;;;;3565289;40;20044;-68
2021/08/18 07:47:26;;;;;;;8.05;2.72;;;;;;;;;;3566001;40;20046;-68
2021/08/18 07:49:52;;;;;;;3.85;2.45;;;;;;;;;;3565450;40;20028;-68
2021/08/18 07:52:18;;;;;;;7.05;2.97;;;;;;;;;;3565947;40;20025;-68
2021/08/18 07:54:46;;;;;;;562.22;383.23;;;;;;;;;;3565476;40;20033;-66
2021/08/18 07:57:12;;;;;;;746.50;615.13;;;;;;;;;;3564366;40;20128;-67
2021/08/18 07:59:38;;;;;;;83.95;60.05;;;;;;;;;;3565100;40;20034;-66
2021/08/18 08:02:04;;;;;;;553.92;424.15;;;;;;;;;;3566408;40;20438;-66
2021/08/18 08:04:30;;;;;;;586.95;454.75;;;;;;;;;;3567012;40;20753;-66
2021/08/18 08:06:56;;;;;;;195.57;174.07;;;;;;;;;;3564384;40;20662;-66
2021/08/18 08:09:22;;;;;;;7.47;5.25;;;;;;;;;;3569163;40;20033;-66
2021/08/18 08:11:48;;;;;;;698.55;550.83;;;;;;;;;;3565874;40;20072;-67
2021/08/18 08:14:14;;;;;;;22.00;18.27;;;;;;;;;;3567070;40;20410;-67
2021/08/18 08:16:39;;;;;;;4.30;2.95;;;;;;;;;;3566048;40;20034;-66
2021/08/18 08:19:05;;;;;;;5.50;3.83;;;;;;;;;;3566553;40;20380;-67
2021/08/18 08:21:31;;;;;;;4.53;2.70;;;;;;;;;;3567199;40;20365;-67
2021/08/18 08:23:57;;;;;;;6.93;2.63;;;;;;;;;;3567968;40;20118;-67
2021/08/18 08:26:23;;;;;;;4.75;2.38;;;;;;;;;;3565942;40;20044;-66
2021/08/18 08:28:49;;;;;;;5.45;2.25;;;;;;;;;;3567935;40;20038;-66
2021/08/18 08:31:15;;;;;;;3.22;2.30;;;;;;;;;;3569346;40;20044;-66
2021/08/18 08:33:41;;;;;;;5.75;2.67;;;;;;;;;;3564029;40;20195;-67
2021/08/18 08:36:07;;;;;;;4.20;2.22;;;;;;;;;;3570900;40;20026;-66
2021/08/18 08:38:33;;;;;;;9.57;2.53;;;;;;;;;;3567433;40;20037;-67
2021/08/18 08:40:59;;;;;;;4.45;2.72;;;;;;;;;;3557639;40;20059;-67
2021/08/18 08:43:25;;;;;;;3.58;2.58;;;;;;;;;;3565733;40;20503;-67
2021/08/18 08:45:52;;;;;;;3.85;2.42;;;;;;;;;;3566710;40;20048;-67
2021/08/18 08:48:18;;;;;;;5.90;2.45;;;;;;;;;;3566167;40;20029;-67
2021/08/18 08:50:44;;;;;;;3.28;2.00;;;;;;;;;;3566922;40;20488;-67
2021/08/18 08:53:09;;;;;;;6.10;2.10;;;;;;;;;;3568323;40;20037;-67
2021/08/18 08:55:35;;;;;;;9.32;4.85;;;;;;;;;;3569304;40;20117;-67
2021/08/18 08:58:01;;;;;;;2.60;2.15;;;;;;;;;;3567765;40;20438;-67
2021/08/18 09:00:27;;;;;;;3.75;2.45;;;;;;;;;;3567871;40;20049;-67
2021/08/18 09:02:53;;;;;;;3.50;2.30;;;;;;;;;;3568907;40;20025;-67
2021/08/18 09:05:19;;;;;;;2.33;1.90;;;;;;;;;;3567276;40;20049;-66
2021/08/18 09:07:45;;;;;;;3.17;2.08;;;;;;;;;;3565892;40;20043;-67
2021/08/18 09:10:11;;;;;;;3.58;2.00;;;;;;;;;;3566448;40;20049;-66
2021/08/18 09:12:37;;;;;;;3.22;2.00;;;;;;;;;;3567225;40;20044;-66
2021/08/18 09:15:03;;;;;;;3.00;1.83;;;;;;;;;;3565869;40;20034;-66
2021/08/18 09:17:29;;;;;;;4.15;2.42;;;;;;;;;;3565896;40;20037;-66
2021/08/18 09:19:55;;;;;;;5.35;2.28;;;;;;;;;;3566504;40;20034;-66
2021/08/18 09:22:21;;;;;;;3.20;2.00;;;;;;;;;;3565609;40;20055;-66
2021/08/18 09:24:47;;;;;;;3.60;2.22;;;;;;;;;;3565422;40;20032;-66
2021/08/18 09:27:13;;;;;;;3.70;2.17;;;;;;;;;;3566684;40;20037;-66
2021/08/18 09:29:45;;;;;;;4.57;2.30;;;;;;;;;;3564528;40;20049;-66
2021/08/18 09:32:11;;;;;;;3.25;2.13;;;;;;;;;;3564163;40;20478;-66
2021/08/18 09:34:37;;;;;;;2.95;1.70;;;;;;;;;;3564506;40;20044;-66
2021/08/18 09:37:03;;;;;;;7.20;2.00;;;;;;;;;;3565894;40;20041;-66
2021/08/18 09:39:29;;;;;;;2.10;1.65;;;;;;;;;;3564297;40;20288;-66
2021/08/18 09:41:55;;;;;;;4.35;1.90;;;;;;;;;;3567099;40;20040;-66
2021/08/18 09:44:21;;;;;;;3.97;2.15;;;;;;;;;;3565956;40;20179;-68
2021/08/18 09:46:48;;;;;;;2.67;2.10;;;;;;;;;;3568519;40;20065;-69
2021/08/18 09:49:14;;;;;;;3.88;2.20;;;;;;;;;;3566390;40;20713;-66
2021/08/18 09:51:43;;;;;;;4.05;1.83;;;;;;;;;;3565794;40;20739;-67
2021/08/18 09:54:08;;;;;;;3.25;1.73;;;20.30;99.90;;;;;;3563785;40;20408;-67
2021/08/18 09:56:34;;;;;;;16.02;2.67;;;;;;;;;;3563014;40;20060;-66
2021/08/18 09:59:00;;;;;;;5.38;2.60;;;;;;;;;;3566286;40;20034;-67
2021/08/18 10:01:26;;;;;;;2.97;1.95;;;;;;;;;;3563303;40;20049;-66
2021/08/18 10:03:52;;;;;;;3.72;1.80;;;;;;;;;;3567845;40;20791;-66
2021/08/18 10:06:18;;;;;;;5.20;1.75;;;;;;;;;;3563551;40;20049;-66
2021/08/18 10:08:44;;;;;;;5.72;2.92;;;;;;;;;;3565005;40;20818;-66
2021/08/18 10:11:12;;;;;;;3.80;2.20;;;;;;;;;;3564287;40;20056;-66
2021/08/18 10:13:37;;;;;;;4.18;1.80;;;;;;;;;;3566833;40;20306;-66
2021/08/18 10:16:03;;;;;;;5.93;1.92;;;;;;;;;;3566992;40;20041;-66
2021/08/18 10:18:29;;;;;;;11.50;2.25;;;;;;;;;;3563734;40;20041;-66
2021/08/18 10:20:55;;;;;;;5.40;2.70;;;;;;;;;;3564241;40;20037;-66
2021/08/18 10:23:21;;;;;;;7.95;2.42;;;;;;;;;;3562645;40;20108;-66
2021/08/18 10:25:47;;;;;;;4.70;2.30;;;22.40;99.90;;;;;;3565428;40;20034;-66
2021/08/18 10:28:13;;;;;;;3.00;1.83;;;;;;;;;;3565581;40;20022;-67
2021/08/18 10:30:39;;;;;;;3.55;2.10;;;;;;;;;;3565859;40;20030;-66
2021/08/18 10:33:05;;;;;;;5.10;2.90;;;;;;;;;;3565433;40;20022;-67
2021/08/18 10:35:31;;;;;;;5.78;2.40;;;;;;;;;;3564315;40;20134;-67
2021/08/18 10:37:57;;;;;;;5.65;3.45;;;;;;;;;;3563395;40;20041;-67
2021/08/18 10:40:23;;;;;;;4.70;2.45;;;;;;;;;;3566104;40;20524;-67
2021/08/18 10:42:49;;;;;;;5.35;3.25;;;;;;;;;;3564304;40;20037;-66
2021/08/18 10:45:15;;;;;;;6.18;2.10;;;;;;;;;;3565207;40;20146;-66
2021/08/18 10:47:41;;;;;;;2.35;1.83;;;;;;;;;;3564941;40;20687;-66
2021/08/18 10:50:07;;;;;;;2.92;1.77;;;;;;;;;;3563537;40;20335;-66
2021/08/18 10:52:33;;;;;;;5.10;1.90;;;;;;;;;;3563276;40;20334;-66
2021/08/18 10:54:59;;;;;;;5.93;2.10;;;;;;;;;;3563681;40;20048;-66
2021/08/18 10:57:25;;;;;;;3.33;1.70;;;;;;;;;;3564946;40;20029;-66
2021/08/18 10:59:51;;;;;;;2.63;1.67;;;;;;;;;;3563925;40;20363;-66
2021/08/18 11:02:17;;;;;;;4.45;2.03;;;;;;;;;;3564680;40;20034;-66
2021/08/18 11:04:46;;;;;;;3.35;1.98;;;;;;;;;;3566760;40;20029;-66
2021/08/18 11:07:12;;;;;;;3.17;2.28;;;;;;;;;;3566331;40;20049;-66
2021/08/18 11:09:38;;;;;;;3.53;1.90;;;;;;;;;;3563986;40;20139;-66
2021/08/18 11:12:04;;;;;;;3.28;2.10;;;;;;;;;;3568530;40;20037;-66
2021/08/18 11:14:30;;;;;;;5.18;1.73;;;;;;;;;;3566493;40;20037;-66
2021/08/18 11:16:56;;;;;;;5.38;2.10;;;;;;;;;;3565450;40;20072;-65
2021/08/18 11:19:22;;;;;;;6.22;2.05;;;;;;;;;;3568265;40;20029;-66
2021/08/18 11:21:48;;;;;;;2.90;1.80;;;;;;;;;;3565522;40;20075;-65
2021/08/18 11:24:16;;;;;;;3.15;1.98;;;;;;;;;;3568257;40;20922;-65
2021/08/18 11:26:42;;;;;;;5.18;2.08;;;;;;;;;;3569026;40;20045;-65
2021/08/18 11:29:08;;;;;;;8.27;1.92;;;;;;;;;;3564398;40;20424;-65
2021/08/18 11:31:34;;;;;;;7.78;1.90;;;;;;;;;;3564172;40;20517;-66
2021/08/18 11:34:00;;;;;;;4.68;2.13;;;;;;;;;;3567658;40;20350;-66
2021/08/18 11:36:26;;;;;;;7.15;2.20;;;;;;;;;;3562695;40;20034;-66
2021/08/18 11:38:52;;;;;;;4.30;1.85;;;;;;;;;;3565748;40;20154;-66
2021/08/18 11:41:18;;;;;;;2.00;1.55;;;;;;;;;;3565499;40;20075;-66
2021/08/18 11:43:44;;;;;;;6.75;2.05;;;;;;;;;;3564747;40;20045;-66
2021/08/18 11:46:10;;;;;;;8.18;2.10;;;;;;;;;;3564450;40;20055;-66
2021/08/18 11:48:37;;;;;;;5.53;1.88;;;;;;;;;;3566188;40;20476;-66
2021/08/18 11:51:03;;;;;;;13.02;2.17;;;;;;;;;;3566283;40;20028;-66
2021/08/18 11:53:29;;;;;;;4.25;1.98;;;;;;;;;;3566509;40;20098;-66
2021/08/18 11:55:55;;;;;;;3.03;1.80;;;;;;;;;;3566010;40;20022;-66
2021/08/18 11:58:21;;;;;;;3.85;1.90;;;;;;;;;;3566519;40;20034;-66
2021/08/18 12:00:47;;;;;;;5.15;1.85;;;19.90;99.90;;;;;;3565849;40;20388;-67
2021/08/18 12:03:13;;;;;;;4.28;2.30;;;;;;;;;;3564615;40;20061;-66
2021/08/18 12:05:39;;;;;;;5.65;1.85;;;;;;;;;;3565715;40;20725;-66
2021/08/18 12:08:05;;;;;;;3.22;1.50;;;;;;;;;;3565295;40;20052;-66
2021/08/18 12:10:31;;;;;;;3.25;1.70;;;;;;;;;;3568402;40;20032;-66
2021/08/18 12:12:57;;;;;;;2.88;1.40;;;;;;;;;;3569198;40;20072;-66
2021/08/18 12:15:23;;;;;;;6.18;1.67;;;;;;;;;;3566042;40;20045;-66
2021/08/18 12:17:49;;;;;;;1.65;1.20;;;;;;;;;;3565452;40;20045;-66
2021/08/18 12:20:15;;;;;;;2.25;1.30;;;;;;;;;;3564182;40;20045;-66
2021/08/18 12:22:41;;;;;;;9.65;1.42;;;;;;;;;;3567428;40;20049;-66
2021/08/18 12:25:07;;;;;;;1.85;1.40;;;;;;;;;;3566389;40;20090;-66
2021/08/18 12:27:33;;;;;;;2.65;1.50;;;;;;;;;;3565554;40;20565;-66
2021/08/18 12:29:59;;;;;;;4.13;1.08;;;;;;;;;;3568742;40;20092;-66
2021/08/18 12:32:25;;;;;;;5.28;1.08;;;;;;;;;;3566346;40;20867;-66
2021/08/18 12:34:51;;;;;;;2.15;1.30;;;;;;;;;;3566335;40;20032;-66
2021/08/18 12:37:17;;;;;;;3.28;1.55;;;;;;;;;;3567727;40;20041;-69
2021/08/18 12:39:46;;;;;;;4.43;1.77;;;;;;;;;;3567939;40;20033;-67
2021/08/18 12:42:12;;;;;;;3.78;1.73;;;;;;;;;;3568097;40;20499;-67
2021/08/18 12:44:39;;;;;;;4.47;1.50;;;;;;;;;;3566384;40;20325;-68
2021/08/18 12:47:05;;;;;;;7.18;3.90;;;;;;;;;;3566817;40;20060;-67
2021/08/18 12:49:31;;;;;;;10.18;3.95;;;;;;;;;;3568309;40;20037;-67
2021/08/18 12:51:57;;;;;;;11.38;3.42;;;;;;;;;;3568352;40;20118;-68
2021/08/18 12:54:22;;;;;;;4.97;2.10;;;;;;;;;;3566822;40;20025;-68
2021/08/18 12:56:49;;;;;;;3.45;1.70;;;;;;;;;;3565029;40;20037;-68
2021/08/18 12:59:15;;;;;;;3.17;1.67;;;;;;;;;;3567013;40;20030;-68
2021/08/18 13:01:40;;;;;;;4.53;1.45;;;;;;;;;;3567570;40;20029;-68
2021/08/18 13:04:06;;;;;;;9.38;2.83;;;;;;;;;;3567056;40;20616;-67
2021/08/18 13:06:32;;;;;;;3.30;1.73;;;;;;;;;;3567320;40;20137;-68
2021/08/18 13:08:58;;;;;;;4.18;1.30;;;;;;;;;;3566359;40;20394;-68
2021/08/18 13:11:24;;;;;;;4.30;1.50;;;;;;;;;;3566229;40;20049;-68
2021/08/18 13:13:50;;;;;;;3.90;1.60;;;;;;;;;;3568501;40;20110;-67
2021/08/18 13:16:16;;;;;;;4.57;1.50;;;;;;;;;;3566539;40;20037;-67
2021/08/18 13:18:42;;;;;;;5.65;1.80;;;;;;;;;;3565517;40;20053;-68
2021/08/18 13:21:08;;;;;;;3.78;2.20;;;;;;;;;;3566443;40;20839;-68
2021/08/18 13:23:34;;;;;;;4.25;1.77;;;;;;;;;;3567691;40;20360;-67
2021/08/18 13:26:00;;;;;;;3.53;1.25;;;;;;;;;;3564603;40;20713;-68
2021/08/18 13:28:26;;;;;;;4.13;1.40;;;;;;;;;;3567338;40;20111;-67
2021/08/18 13:30:52;;;;;;;4.65;1.30;;;;;;;;;;3567185;40;20038;-67
2021/08/18 13:33:18;;;;;;;5.05;1.50;;;;;;;;;;3566149;40;20041;-68
2021/08/18 13:35:44;;;;;;;2.80;1.30;;;;;;;;;;3566902;40;20113;-66
2021/08/18 13:38:10;;;;;;;2.03;1.20;;;;;;;;;;3566252;40;20077;-66
2021/08/18 13:40:35;;;;;;;2.60;1.15;;;21.60;99.90;;;;;;3566533;40;20971;-66
2021/08/18 13:43:01;;;;;;;4.55;1.13;;;;;;;;;;3565196;40;20645;-67
2021/08/18 13:45:27;;;;;;;17.77;2.65;;;;;;;;;;3567642;40;20051;-67
2021/08/18 13:47:53;;;;;;;14.05;2.45;;;;;;;;;;3566138;40;20041;-67
2021/08/18 13:50:20;;;;;;;3.05;1.52;;;;;;;;;;3556312;40;20396;-67
2021/08/18 13:52:46;;;;;;;9.85;1.30;;;;;;;;;;3566215;40;20032;-67
2021/08/18 13:55:11;;;;;;;11.98;2.20;;;;;;;;;;3565718;40;20078;-67
2021/08/18 13:57:40;;;;;;;12.35;1.95;;;;;;;;;;3563831;40;20398;-67
2021/08/18 14:00:06;;;;;;;2.95;1.35;;;;;;;;;;3565745;40;20070;-67
2021/08/18 14:02:33;;;;;;;11.30;2.67;;;;;;;;;;3565477;40;20123;-66
2021/08/18 14:04:59;;;;;;;2.88;1.10;;;;;;;;;;3566706;40;20041;-67
2021/08/18 14:07:25;;;;;;;2.72;1.20;;;;;;;;;;3567645;40;20049;-67
2021/08/18 14:09:51;;;;;;;1.77;1.08;;;;;;;;;;3569322;40;20025;-66
2021/08/18 14:12:17;;;;;;;6.38;1.30;;;;;;;;;;3566605;40;20065;-67